sensor_id;sensor_type;location;lat;lon;timestamp;temperature;humidity
8475;DHT22;4274;52.012;8.448;2023-04-09T00:00:33;5.20;99.90
8475;DHT22;4274;52.012;8.448;2023-04-09T00:02:58;5.20;99.90
8475;DHT22;4274;52.012;8.448;2023-04-09T00:05:24;5.20;99.90
8475;DHT22;4274;52.012;8.448;2023-04-09T00:07:49;5.20;99.90
8475;DHT22;4274;52.012;8.448;2023-04-09T00:10:15;5.20;99.90
8475;DHT22;4274;52.012;8.448;2023-04-09T00:12:41;5.10;99.90
8475;DHT22;4274;52.012;8.448;2023-04-09T00:15:07;5.10;99.90
8475;DHT22;4274;52.012;8.448;2023-04-09T00:17:32;5.10;99.90
8475;DHT22;4274;52.012;8.448;2023-04-09T00:19:58;5.10;99.90
8475;DHT22;4274;52.012;8.448;2023-04-09T00:22:24;5.10;99.90
8475;DHT22;4274;52.012;8.448;2023-04-09T00:24:49;5.00;99.90
8475;DHT22;4274;52.012;8.448;2023-04-09T00:27:15;5.00;99.90
8475;DHT22;4274;52.012;8.448;2023-04-09T00:29:41;5.00;99.90
8475;DHT22;4274;52.012;8.448;2023-04-09T00:32:06;4.90;99.90
8475;DHT22;4274;52.012;8.448;2023-04-09T00:34:32;4.90;99.90
8475;DHT22;4274;52.012;8.448;2023-04-09T00:36:58;4.90;99.90
8475;DHT22;4274;52.012;8.448;2023-04-09T00:39:25;4.80;99.90
8475;DHT22;4274;52.012;8.448;2023-04-09T00:41:55;4.80;99.90
8475;DHT22;4274;52.012;8.448;2023-04-09T00:44:21;4.80;99.90
8475;DHT22;4274;52.012;8.448;2023-04-09T00:46:47;4.70;99.90
8475;DHT22;4274;52.012;8.448;2023-04-09T00:49:13;4.70;99.90
8475;DHT22;4274;52.012;8.448;2023-04-09T00:51:39;4.70;99.90
8475;DHT22;4274;52.012;8.448;2023-04-09T00:54:06;4.70;99.90
8475;DHT22;4274;52.012;8.448;2023-04-09T00:56:32;4.60;99.90
8475;DHT22;4274;52.012;8.448;2023-04-09T00:58:58;4.60;99.90
8475;DHT22;4274;52.012;8.448;2023-04-09T01:01:24;4.60;99.90
8475;DHT22;4274;52.012;8.448;2023-04-09T01:03:50;4.60;99.90
8475;DHT22;4274;52.012;8.448;2023-04-09T01:06:25;4.60;99.90
8475;DHT22;4274;52.012;8.448;2023-04-09T01:09:02;4.60;99.90
8475;DHT22;4274;52.012;8.448;2023-04-09T01:11:37;4.50;99.90
8475;DHT22;4274;52.012;8.448;2023-04-09T01:14:11;4.50;99.90
8475;DHT22;4274;52.012;8.448;2023-04-09T01:16:41;4.40;99.90
8475;DHT22;4274;52.012;8.448;2023-04-09T01:19:38;4.40;99.90
8475;DHT22;4274;52.012;8.448;2023-04-09T01:22:55;4.30;99.90
8475;DHT22;4274;52.012;8.448;2023-04-09T01:25:13;4.30;99.90
8475;DHT22;4274;52.012;8.448;2023-04-09T01:30:25;4.20;99.90
8475;DHT22;4274;52.012;8.448;2023-04-09T01:32:53;4.20;99.90
8475;DHT22;4274;52.012;8.448;2023-04-09T01:35:20;4.10;99.90
8475;DHT22;4274;52.012;8.448;2023-04-09T01:37:46;4.00;99.90
8475;DHT22;4274;52.012;8.448;2023-04-09T01:40:12;4.00;99.90
8475;DHT22;4274;52.012;8.448;2023-04-09T01:42:38;3.90;99.90
8475;DHT22;4274;52.012;8.448;2023-04-09T01:45:06;3.80;99.90
8475;DHT22;4274;52.012;8.448;2023-04-09T01:47:32;3.80;99.90
8475;DHT22;4274;52.012;8.448;2023-04-09T01:49:57;3.70;99.90
8475;DHT22;4274;52.012;8.448;2023-04-09T01:52:23;3.70;99.90
8475;DHT22;4274;52.012;8.448;2023-04-09T01:54:49;3.60;99.90
8475;DHT22;4274;52.012;8.448;2023-04-09T01:57:14;3.60;99.90
8475;DHT22;4274;52.012;8.448;2023-04-09T01:59:40;3.60;99.90
8475;DHT22;4274;52.012;8.448;2023-04-09T02:02:11;3.50;99.90
8475;DHT22;4274;52.012;8.448;2023-04-09T02:04:45;3.50;99.90
8475;DHT22;4274;52.012;8.448;2023-04-09T02:07:30;3.50;99.90
8475;DHT22;4274;52.012;8.448;2023-04-09T02:10:00;3.50;99.90
8475;DHT22;4274;52.012;8.448;2023-04-09T02:12:27;3.40;99.90
8475;DHT22;4274;52.012;8.448;2023-04-09T02:14:53;3.40;99.90
8475;DHT22;4274;52.012;8.448;2023-04-09T02:17:19;3.30;99.90
8475;DHT22;4274;52.012;8.448;2023-04-09T02:19:46;3.30;99.90
8475;DHT22;4274;52.012;8.448;2023-04-09T02:22:13;3.20;99.90
8475;DHT22;4274;52.012;8.448;2023-04-09T02:24:39;3.20;99.90
8475;DHT22;4274;52.012;8.448;2023-04-09T02:27:06;3.20;99.90
8475;DHT22;4274;52.012;8.448;2023-04-09T02:29:31;3.20;99.90
8475;DHT22;4274;52.012;8.448;2023-04-09T02:31:57;3.10;99.90
8475;DHT22;4274;52.012;8.448;2023-04-09T02:34:23;3.10;99.90
8475;DHT22;4274;52.012;8.448;2023-04-09T02:36:48;3.10;99.90
8475;DHT22;4274;52.012;8.448;2023-04-09T02:39:14;3.10;99.90
8475;DHT22;4274;52.012;8.448;2023-04-09T02:41:40;3.10;99.90
8475;DHT22;4274;52.012;8.448;2023-04-09T02:44:05;3.10;99.90
8475;DHT22;4274;52.012;8.448;2023-04-09T02:46:31;3.10;99.90
8475;DHT22;4274;52.012;8.448;2023-04-09T02:48:56;3.10;99.90
8475;DHT22;4274;52.012;8.448;2023-04-09T02:51:22;3.10;99.90
8475;DHT22;4274;52.012;8.448;2023-04-09T02:53:47;3.00;99.90
8475;DHT22;4274;52.012;8.448;2023-04-09T02:56:13;3.00;99.90
8475;DHT22;4274;52.012;8.448;2023-04-09T02:58:38;3.00;99.90
8475;DHT22;4274;52.012;8.448;2023-04-09T03:01:04;3.00;99.90
8475;DHT22;4274;52.012;8.448;2023-04-09T03:03:30;3.00;99.90
8475;DHT22;4274;52.012;8.448;2023-04-09T03:05:56;2.90;99.90
8475;DHT22;4274;52.012;8.448;2023-04-09T03:08:21;2.90;99.90
8475;DHT22;4274;52.012;8.448;2023-04-09T03:10:47;2.90;99.90
8475;DHT22;4274;52.012;8.448;2023-04-09T03:13:12;2.90;99.90
8475;DHT22;4274;52.012;8.448;2023-04-09T03:15:38;2.90;99.90
8475;DHT22;4274;52.012;8.448;2023-04-09T03:18:04;2.90;99.90
8475;DHT22;4274;52.012;8.448;2023-04-09T03:20:29;2.90;99.90
8475;DHT22;4274;52.012;8.448;2023-04-09T03:22:55;2.90;99.90
8475;DHT22;4274;52.012;8.448;2023-04-09T03:25:21;2.90;99.90
8475;DHT22;4274;52.012;8.448;2023-04-09T03:27:46;2.90;99.90
8475;DHT22;4274;52.012;8.448;2023-04-09T03:30:12;2.80;99.90
8475;DHT22;4274;52.012;8.448;2023-04-09T03:32:37;2.80;99.90
8475;DHT22;4274;52.012;8.448;2023-04-09T03:35:03;2.80;99.90
8475;DHT22;4274;52.012;8.448;2023-04-09T03:37:29;2.80;99.90
8475;DHT22;4274;52.012;8.448;2023-04-09T03:39:54;2.80;99.90
8475;DHT22;4274;52.012;8.448;2023-04-09T03:42:20;2.70;99.90
8475;DHT22;4274;52.012;8.448;2023-04-09T03:44:45;2.70;99.90
8475;DHT22;4274;52.012;8.448;2023-04-09T03:47:11;2.60;99.90
8475;DHT22;4274;52.012;8.448;2023-04-09T03:49:37;2.60;99.90
8475;DHT22;4274;52.012;8.448;2023-04-09T03:52:02;2.60;99.90
8475;DHT22;4274;52.012;8.448;2023-04-09T03:54:28;2.60;99.90
8475;DHT22;4274;52.012;8.448;2023-04-09T03:56:54;2.50;99.90
8475;DHT22;4274;52.012;8.448;2023-04-09T03:59:20;2.40;99.90
8475;DHT22;4274;52.012;8.448;2023-04-09T04:01:46;2.40;99.90
8475;DHT22;4274;52.012;8.448;2023-04-09T04:04:12;2.40;99.90
8475;DHT22;4274;52.012;8.448;2023-04-09T04:06:38;2.40;99.90
8475;DHT22;4274;52.012;8.448;2023-04-09T04:09:03;2.40;99.90
8475;DHT22;4274;52.012;8.448;2023-04-09T04:11:29;2.40;99.90
8475;DHT22;4274;52.012;8.448;2023-04-09T04:13:55;2.40;99.90
8475;DHT22;4274;52.012;8.448;2023-04-09T04:16:20;2.40;99.90
8475;DHT22;4274;52.012;8.448;2023-04-09T04:18:46;2.40;99.90
8475;DHT22;4274;52.012;8.448;2023-04-09T04:21:15;2.40;99.90
8475;DHT22;4274;52.012;8.448;2023-04-09T04:23:41;2.40;99.90
8475;DHT22;4274;52.012;8.448;2023-04-09T04:26:10;2.40;99.90
8475;DHT22;4274;52.012;8.448;2023-04-09T04:28:37;2.40;99.90
8475;DHT22;4274;52.012;8.448;2023-04-09T04:31:10;2.40;99.90
8475;DHT22;4274;52.012;8.448;2023-04-09T04:33:37;2.40;99.90
8475;DHT22;4274;52.012;8.448;2023-04-09T04:36:10;2.40;99.90
8475;DHT22;4274;52.012;8.448;2023-04-09T04:38:37;2.40;99.90
8475;DHT22;4274;52.012;8.448;2023-04-09T04:41:03;2.30;99.90
8475;DHT22;4274;52.012;8.448;2023-04-09T04:43:29;2.30;99.90
8475;DHT22;4274;52.012;8.448;2023-04-09T04:45:55;2.30;99.90
8475;DHT22;4274;52.012;8.448;2023-04-09T04:48:21;2.30;99.90
8475;DHT22;4274;52.012;8.448;2023-04-09T04:50:54;2.30;99.90
8475;DHT22;4274;52.012;8.448;2023-04-09T04:53:20;2.40;99.90
8475;DHT22;4274;52.012;8.448;2023-04-09T04:55:46;2.40;99.90
8475;DHT22;4274;52.012;8.448;2023-04-09T04:58:12;2.40;99.90
8475;DHT22;4274;52.012;8.448;2023-04-09T05:00:38;2.40;99.90
8475;DHT22;4274;52.012;8.448;2023-04-09T05:03:03;2.50;99.90
8475;DHT22;4274;52.012;8.448;2023-04-09T05:05:29;2.40;99.90
8475;DHT22;4274;52.012;8.448;2023-04-09T05:07:54;2.50;99.90
8475;DHT22;4274;52.012;8.448;2023-04-09T05:10:20;2.60;99.90
8475;DHT22;4274;52.012;8.448;2023-04-09T05:12:46;2.60;99.90
8475;DHT22;4274;52.012;8.448;2023-04-09T05:15:11;2.60;99.90
8475;DHT22;4274;52.012;8.448;2023-04-09T05:17:37;2.60;99.90
8475;DHT22;4274;52.012;8.448;2023-04-09T05:20:03;2.70;99.90
8475;DHT22;4274;52.012;8.448;2023-04-09T05:22:28;2.70;99.90
8475;DHT22;4274;52.012;8.448;2023-04-09T05:24:54;2.80;99.90
8475;DHT22;4274;52.012;8.448;2023-04-09T05:27:19;2.80;99.90
8475;DHT22;4274;52.012;8.448;2023-04-09T05:29:46;2.80;99.90
8475;DHT22;4274;52.012;8.448;2023-04-09T05:32:12;2.80;99.90
8475;DHT22;4274;52.012;8.448;2023-04-09T05:34:37;2.90;99.90
8475;DHT22;4274;52.012;8.448;2023-04-09T05:37:03;2.90;99.90
8475;DHT22;4274;52.012;8.448;2023-04-09T05:39:28;2.90;99.90
8475;DHT22;4274;52.012;8.448;2023-04-09T05:41:56;2.90;99.90
8475;DHT22;4274;52.012;8.448;2023-04-09T05:44:21;2.90;99.90
8475;DHT22;4274;52.012;8.448;2023-04-09T05:46:47;3.00;99.90
8475;DHT22;4274;52.012;8.448;2023-04-09T05:49:12;3.00;99.90
8475;DHT22;4274;52.012;8.448;2023-04-09T05:51:38;3.00;99.90
8475;DHT22;4274;52.012;8.448;2023-04-09T05:54:04;3.10;99.90
8475;DHT22;4274;52.012;8.448;2023-04-09T05:56:29;3.10;99.90
8475;DHT22;4274;52.012;8.448;2023-04-09T05:58:55;3.10;99.90
8475;DHT22;4274;52.012;8.448;2023-04-09T06:01:21;3.20;99.90
8475;DHT22;4274;52.012;8.448;2023-04-09T06:03:46;3.40;99.90
8475;DHT22;4274;52.012;8.448;2023-04-09T06:06:12;3.60;99.90
8475;DHT22;4274;52.012;8.448;2023-04-09T06:08:38;4.10;99.90
8475;DHT22;4274;52.012;8.448;2023-04-09T06:11:08;4.80;99.90
8475;DHT22;4274;52.012;8.448;2023-04-09T06:13:34;5.40;99.90
8475;DHT22;4274;52.012;8.448;2023-04-09T06:16:03;6.00;99.90
8475;DHT22;4274;52.012;8.448;2023-04-09T06:18:28;6.60;99.90
8475;DHT22;4274;52.012;8.448;2023-04-09T06:21:07;7.00;99.90
8475;DHT22;4274;52.012;8.448;2023-04-09T06:23:34;7.50;99.90
8475;DHT22;4274;52.012;8.448;2023-04-09T06:26:00;7.90;99.90
8475;DHT22;4274;52.012;8.448;2023-04-09T06:28:27;8.10;99.90
8475;DHT22;4274;52.012;8.448;2023-04-09T06:30:52;8.30;99.90
8475;DHT22;4274;52.012;8.448;2023-04-09T06:33:20;8.40;99.90
8475;DHT22;4274;52.012;8.448;2023-04-09T06:35:46;8.70;99.90
8475;DHT22;4274;52.012;8.448;2023-04-09T06:38:12;8.90;99.90
8475;DHT22;4274;52.012;8.448;2023-04-09T06:40:37;9.10;99.90
8475;DHT22;4274;52.012;8.448;2023-04-09T06:43:04;9.40;99.90
8475;DHT22;4274;52.012;8.448;2023-04-09T06:45:30;9.60;99.90
8475;DHT22;4274;52.012;8.448;2023-04-09T06:47:57;9.80;99.90
8475;DHT22;4274;52.012;8.448;2023-04-09T06:50:22;10.00;99.90
8475;DHT22;4274;52.012;8.448;2023-04-09T06:52:48;10.20;99.90
8475;DHT22;4274;52.012;8.448;2023-04-09T06:55:14;10.40;99.90
8475;DHT22;4274;52.012;8.448;2023-04-09T06:57:39;10.50;99.90
8475;DHT22;4274;52.012;8.448;2023-04-09T07:00:06;10.80;99.90
8475;DHT22;4274;52.012;8.448;2023-04-09T07:02:32;11.10;99.90
8475;DHT22;4274;52.012;8.448;2023-04-09T07:04:58;11.50;99.90
8475;DHT22;4274;52.012;8.448;2023-04-09T07:07:24;11.70;99.90
8475;DHT22;4274;52.012;8.448;2023-04-09T07:09:49;12.10;99.90
8475;DHT22;4274;52.012;8.448;2023-04-09T07:12:28;12.70;99.90
8475;DHT22;4274;52.012;8.448;2023-04-09T07:14:58;13.10;99.90
8475;DHT22;4274;52.012;8.448;2023-04-09T07:17:23;13.70;99.90
8475;DHT22;4274;52.012;8.448;2023-04-09T07:19:49;14.30;99.90
8475;DHT22;4274;52.012;8.448;2023-04-09T07:22:16;14.80;99.90
8475;DHT22;4274;52.012;8.448;2023-04-09T07:24:42;15.20;99.90
8475;DHT22;4274;52.012;8.448;2023-04-09T07:27:07;15.40;99.90
8475;DHT22;4274;52.012;8.448;2023-04-09T07:29:34;15.60;99.90
8475;DHT22;4274;52.012;8.448;2023-04-09T07:31:59;15.90;99.90
8475;DHT22;4274;52.012;8.448;2023-04-09T07:34:27;16.40;99.90
8475;DHT22;4274;52.012;8.448;2023-04-09T07:36:52;16.80;99.90
8475;DHT22;4274;52.012;8.448;2023-04-09T07:39:19;17.20;99.90
8475;DHT22;4274;52.012;8.448;2023-04-09T07:41:45;17.50;99.90
8475;DHT22;4274;52.012;8.448;2023-04-09T07:44:12;17.70;99.90
8475;DHT22;4274;52.012;8.448;2023-04-09T07:46:38;17.70;99.90
8475;DHT22;4274;52.012;8.448;2023-04-09T07:49:04;17.70;99.90
8475;DHT22;4274;52.012;8.448;2023-04-09T07:51:30;17.50;99.90
8475;DHT22;4274;52.012;8.448;2023-04-09T07:53:55;17.60;99.90
8475;DHT22;4274;52.012;8.448;2023-04-09T07:56:21;17.50;99.90
8475;DHT22;4274;52.012;8.448;2023-04-09T07:58:47;17.30;99.90
8475;DHT22;4274;52.012;8.448;2023-04-09T08:01:13;17.00;99.90
8475;DHT22;4274;52.012;8.448;2023-04-09T08:03:39;16.60;99.90
8475;DHT22;4274;52.012;8.448;2023-04-09T08:06:05;16.40;99.90
8475;DHT22;4274;52.012;8.448;2023-04-09T08:08:31;16.50;99.90
8475;DHT22;4274;52.012;8.448;2023-04-09T08:10:57;16.60;99.90
8475;DHT22;4274;52.012;8.448;2023-04-09T08:13:23;16.70;99.90
8475;DHT22;4274;52.012;8.448;2023-04-09T08:15:49;16.40;99.90
8475;DHT22;4274;52.012;8.448;2023-04-09T08:18:15;16.40;99.90
8475;DHT22;4274;52.012;8.448;2023-04-09T08:20:41;16.60;99.90
8475;DHT22;4274;52.012;8.448;2023-04-09T08:23:10;16.80;99.90
8475;DHT22;4274;52.012;8.448;2023-04-09T08:25:36;17.10;99.90
8475;DHT22;4274;52.012;8.448;2023-04-09T08:28:01;17.40;99.90
8475;DHT22;4274;52.012;8.448;2023-04-09T08:30:27;17.60;99.90
8475;DHT22;4274;52.012;8.448;2023-04-09T08:32:52;17.70;99.90
8475;DHT22;4274;52.012;8.448;2023-04-09T08:35:18;17.80;99.90
8475;DHT22;4274;52.012;8.448;2023-04-09T08:37:44;17.90;99.90
8475;DHT22;4274;52.012;8.448;2023-04-09T08:40:10;18.00;99.90
8475;DHT22;4274;52.012;8.448;2023-04-09T08:42:39;18.00;99.90
8475;DHT22;4274;52.012;8.448;2023-04-09T08:45:07;18.10;99.90
8475;DHT22;4274;52.012;8.448;2023-04-09T08:47:35;18.00;99.90
8475;DHT22;4274;52.012;8.448;2023-04-09T08:50:01;17.90;99.90
8475;DHT22;4274;52.012;8.448;2023-04-09T08:52:33;17.70;99.90
8475;DHT22;4274;52.012;8.448;2023-04-09T08:54:59;17.70;99.90
8475;DHT22;4274;52.012;8.448;2023-04-09T08:57:26;17.90;99.90
8475;DHT22;4274;52.012;8.448;2023-04-09T08:59:52;18.00;99.90
8475;DHT22;4274;52.012;8.448;2023-04-09T09:02:17;18.10;99.90
8475;DHT22;4274;52.012;8.448;2023-04-09T09:04:44;18.40;99.90
8475;DHT22;4274;52.012;8.448;2023-04-09T09:07:10;18.70;99.90
8475;DHT22;4274;52.012;8.448;2023-04-09T09:09:56;19.00;99.90
8475;DHT22;4274;52.012;8.448;2023-04-09T09:12:36;19.60;99.90
8475;DHT22;4274;52.012;8.448;2023-04-09T09:15:04;19.90;99.90
8475;DHT22;4274;52.012;8.448;2023-04-09T09:17:30;20.30;99.90
8475;DHT22;4274;52.012;8.448;2023-04-09T09:19:56;20.50;99.90
8475;DHT22;4274;52.012;8.448;2023-04-09T09:22:23;20.90;99.90
8475;DHT22;4274;52.012;8.448;2023-04-09T09:24:50;21.10;98.60
8475;DHT22;4274;52.012;8.448;2023-04-09T09:27:35;21.40;98.30
8475;DHT22;4274;52.012;8.448;2023-04-09T09:30:04;21.80;98.00
8475;DHT22;4274;52.012;8.448;2023-04-09T09:32:31;22.20;96.40
8475;DHT22;4274;52.012;8.448;2023-04-09T09:35:06;22.50;96.50
8475;DHT22;4274;52.012;8.448;2023-04-09T09:37:32;22.80;94.50
8475;DHT22;4274;52.012;8.448;2023-04-09T09:39:59;22.40;93.80
8475;DHT22;4274;52.012;8.448;2023-04-09T09:42:25;22.10;94.50
8475;DHT22;4274;52.012;8.448;2023-04-09T09:44:52;22.10;93.50
8475;DHT22;4274;52.012;8.448;2023-04-09T09:47:19;22.20;93.70
8475;DHT22;4274;52.012;8.448;2023-04-09T09:49:47;22.20;93.90
8475;DHT22;4274;52.012;8.448;2023-04-09T09:52:14;22.30;94.50
8475;DHT22;4274;52.012;8.448;2023-04-09T09:54:41;22.60;93.80
8475;DHT22;4274;52.012;8.448;2023-04-09T09:57:10;22.50;92.60
8475;DHT22;4274;52.012;8.448;2023-04-09T09:59:49;22.60;93.40
8475;DHT22;4274;52.012;8.448;2023-04-09T10:02:22;22.70;92.20
8475;DHT22;4274;52.012;8.448;2023-04-09T10:04:49;22.60;92.70
8475;DHT22;4274;52.012;8.448;2023-04-09T10:07:18;22.80;92.60
8475;DHT22;4274;52.012;8.448;2023-04-09T10:09:48;23.20;91.20
8475;DHT22;4274;52.012;8.448;2023-04-09T10:12:13;23.50;91.60
8475;DHT22;4274;52.012;8.448;2023-04-09T10:14:40;23.20;90.80
8475;DHT22;4274;52.012;8.448;2023-04-09T10:17:06;22.00;90.10
8475;DHT22;4274;52.012;8.448;2023-04-09T10:19:37;20.80;90.70
8475;DHT22;4274;52.012;8.448;2023-04-09T10:22:08;19.50;90.70
8475;DHT22;4274;52.012;8.448;2023-04-09T10:24:35;18.20;91.90
8475;DHT22;4274;52.012;8.448;2023-04-09T10:27:15;17.10;92.60
8475;DHT22;4274;52.012;8.448;2023-04-09T10:29:46;16.20;93.60
8475;DHT22;4274;52.012;8.448;2023-04-09T10:32:12;15.70;94.40
8475;DHT22;4274;52.012;8.448;2023-04-09T10:34:42;15.30;94.20
8475;DHT22;4274;52.012;8.448;2023-04-09T10:37:12;15.20;94.30
8475;DHT22;4274;52.012;8.448;2023-04-09T10:39:48;15.00;94.70
8475;DHT22;4274;52.012;8.448;2023-04-09T10:42:35;14.80;94.90
8475;DHT22;4274;52.012;8.448;2023-04-09T10:45:12;14.70;95.30
8475;DHT22;4274;52.012;8.448;2023-04-09T10:47:40;14.60;95.30
8475;DHT22;4274;52.012;8.448;2023-04-09T10:50:17;14.40;94.90
8475;DHT22;4274;52.012;8.448;2023-04-09T10:52:43;14.20;95.20
8475;DHT22;4274;52.012;8.448;2023-04-09T10:55:33;14.10;95.70
8475;DHT22;4274;52.012;8.448;2023-04-09T10:57:59;13.90;95.80
8475;DHT22;4274;52.012;8.448;2023-04-09T11:00:25;13.90;96.20
8475;DHT22;4274;52.012;8.448;2023-04-09T11:02:58;13.90;96.20
8475;DHT22;4274;52.012;8.448;2023-04-09T11:05:32;13.80;96.20
8475;DHT22;4274;52.012;8.448;2023-04-09T11:08:03;13.80;96.70
8475;DHT22;4274;52.012;8.448;2023-04-09T11:10:33;14.10;97.40
8475;DHT22;4274;52.012;8.448;2023-04-09T11:12:59;14.40;97.20
8475;DHT22;4274;52.012;8.448;2023-04-09T11:15:25;14.60;98.30
8475;DHT22;4274;52.012;8.448;2023-04-09T11:17:51;14.60;97.50
8475;DHT22;4274;52.012;8.448;2023-04-09T11:20:20;14.50;97.50
8475;DHT22;4274;52.012;8.448;2023-04-09T11:22:50;14.40;97.30
8475;DHT22;4274;52.012;8.448;2023-04-09T11:25:25;14.30;97.50
8475;DHT22;4274;52.012;8.448;2023-04-09T11:27:52;14.20;97.30
8475;DHT22;4274;52.012;8.448;2023-04-09T11:30:18;14.10;96.90
8475;DHT22;4274;52.012;8.448;2023-04-09T11:32:44;14.00;96.50
8475;DHT22;4274;52.012;8.448;2023-04-09T11:35:14;14.00;96.60
8475;DHT22;4274;52.012;8.448;2023-04-09T11:37:41;14.00;96.60
8475;DHT22;4274;52.012;8.448;2023-04-09T11:40:17;14.00;96.20
8475;DHT22;4274;52.012;8.448;2023-04-09T11:42:44;13.90;95.70
8475;DHT22;4274;52.012;8.448;2023-04-09T11:45:11;13.80;95.70
8475;DHT22;4274;52.012;8.448;2023-04-09T11:47:39;13.60;95.90
8475;DHT22;4274;52.012;8.448;2023-04-09T11:50:07;13.50;95.80
8475;DHT22;4274;52.012;8.448;2023-04-09T11:52:34;13.30;95.80
8475;DHT22;4274;52.012;8.448;2023-04-09T11:55:03;13.30;96.30
8475;DHT22;4274;52.012;8.448;2023-04-09T11:57:45;13.40;96.50
8475;DHT22;4274;52.012;8.448;2023-04-09T12:00:15;13.40;96.80
8475;DHT22;4274;52.012;8.448;2023-04-09T12:02:43;13.50;95.70
8475;DHT22;4274;52.012;8.448;2023-04-09T12:05:11;13.40;95.90
8475;DHT22;4274;52.012;8.448;2023-04-09T12:07:39;13.30;96.10
8475;DHT22;4274;52.012;8.448;2023-04-09T12:10:06;13.20;96.40
8475;DHT22;4274;52.012;8.448;2023-04-09T12:12:39;13.20;96.80
8475;DHT22;4274;52.012;8.448;2023-04-09T12:15:17;13.20;96.60
8475;DHT22;4274;52.012;8.448;2023-04-09T12:17:54;13.30;96.40
8475;DHT22;4274;52.012;8.448;2023-04-09T12:20:40;13.30;96.30
8475;DHT22;4274;52.012;8.448;2023-04-09T12:23:08;13.30;96.20
8475;DHT22;4274;52.012;8.448;2023-04-09T12:25:36;13.30;96.20
8475;DHT22;4274;52.012;8.448;2023-04-09T12:28:03;13.30;96.20
8475;DHT22;4274;52.012;8.448;2023-04-09T12:30:29;13.30;96.00
8475;DHT22;4274;52.012;8.448;2023-04-09T12:32:55;13.20;96.10
8475;DHT22;4274;52.012;8.448;2023-04-09T12:35:21;13.20;96.20
8475;DHT22;4274;52.012;8.448;2023-04-09T12:37:46;13.20;95.80
8475;DHT22;4274;52.012;8.448;2023-04-09T12:40:12;13.20;95.70
8475;DHT22;4274;52.012;8.448;2023-04-09T12:42:39;13.10;96.10
8475;DHT22;4274;52.012;8.448;2023-04-09T12:45:06;13.10;97.20
8475;DHT22;4274;52.012;8.448;2023-04-09T12:47:32;13.10;96.70
8475;DHT22;4274;52.012;8.448;2023-04-09T12:49:58;13.20;96.70
8475;DHT22;4274;52.012;8.448;2023-04-09T12:52:23;13.30;96.50
8475;DHT22;4274;52.012;8.448;2023-04-09T12:54:50;13.30;96.40
8475;DHT22;4274;52.012;8.448;2023-04-09T12:57:16;13.30;95.50
8475;DHT22;4274;52.012;8.448;2023-04-09T12:59:41;13.20;95.80
8475;DHT22;4274;52.012;8.448;2023-04-09T13:02:07;13.20;96.10
8475;DHT22;4274;52.012;8.448;2023-04-09T13:04:32;13.10;95.30
8475;DHT22;4274;52.012;8.448;2023-04-09T13:06:58;13.00;95.70
8475;DHT22;4274;52.012;8.448;2023-04-09T13:09:24;13.00;95.70
8475;DHT22;4274;52.012;8.448;2023-04-09T13:11:50;13.00;96.00
8475;DHT22;4274;52.012;8.448;2023-04-09T13:14:15;13.10;95.70
8475;DHT22;4274;52.012;8.448;2023-04-09T13:16:41;13.10;95.90
8475;DHT22;4274;52.012;8.448;2023-04-09T13:19:08;13.10;96.20
8475;DHT22;4274;52.012;8.448;2023-04-09T13:21:34;13.20;95.90
8475;DHT22;4274;52.012;8.448;2023-04-09T13:24:01;13.30;95.40
8475;DHT22;4274;52.012;8.448;2023-04-09T13:26:27;13.40;95.60
8475;DHT22;4274;52.012;8.448;2023-04-09T13:28:52;13.40;95.40
8475;DHT22;4274;52.012;8.448;2023-04-09T13:31:18;13.60;95.50
8475;DHT22;4274;52.012;8.448;2023-04-09T13:33:44;13.70;95.70
8475;DHT22;4274;52.012;8.448;2023-04-09T13:36:09;13.70;94.90
8475;DHT22;4274;52.012;8.448;2023-04-09T13:38:36;13.80;94.90
8475;DHT22;4274;52.012;8.448;2023-04-09T13:41:02;13.80;94.60
8475;DHT22;4274;52.012;8.448;2023-04-09T13:43:27;13.80;94.70
8475;DHT22;4274;52.012;8.448;2023-04-09T13:45:54;13.90;95.00
8475;DHT22;4274;52.012;8.448;2023-04-09T13:48:20;14.10;94.80
8475;DHT22;4274;52.012;8.448;2023-04-09T13:50:46;14.40;94.00
8475;DHT22;4274;52.012;8.448;2023-04-09T13:53:12;14.40;94.50
8475;DHT22;4274;52.012;8.448;2023-04-09T13:55:38;14.40;94.40
8475;DHT22;4274;52.012;8.448;2023-04-09T13:58:04;14.50;94.30
8475;DHT22;4274;52.012;8.448;2023-04-09T14:00:30;14.50;93.30
8475;DHT22;4274;52.012;8.448;2023-04-09T14:02:56;14.40;94.00
8475;DHT22;4274;52.012;8.448;2023-04-09T14:05:22;14.40;93.80
8475;DHT22;4274;52.012;8.448;2023-04-09T14:07:48;14.60;93.70
8475;DHT22;4274;52.012;8.448;2023-04-09T14:10:14;14.70;93.80
8475;DHT22;4274;52.012;8.448;2023-04-09T14:12:40;15.00;94.40
8475;DHT22;4274;52.012;8.448;2023-04-09T14:15:06;15.20;92.90
8475;DHT22;4274;52.012;8.448;2023-04-09T14:17:32;15.20;92.80
8475;DHT22;4274;52.012;8.448;2023-04-09T14:19:57;15.20;92.60
8475;DHT22;4274;52.012;8.448;2023-04-09T14:22:25;15.10;92.30
8475;DHT22;4274;52.012;8.448;2023-04-09T14:24:50;14.90;92.30
8475;DHT22;4274;52.012;8.448;2023-04-09T14:27:16;14.60;92.70
8475;DHT22;4274;52.012;8.448;2023-04-09T14:29:42;14.20;92.70
8475;DHT22;4274;52.012;8.448;2023-04-09T14:32:07;14.10;92.90
8475;DHT22;4274;52.012;8.448;2023-04-09T14:34:33;14.00;93.20
8475;DHT22;4274;52.012;8.448;2023-04-09T14:36:58;14.00;92.90
8475;DHT22;4274;52.012;8.448;2023-04-09T14:39:24;13.90;93.00
8475;DHT22;4274;52.012;8.448;2023-04-09T14:41:50;13.90;93.20
8475;DHT22;4274;52.012;8.448;2023-04-09T14:44:16;13.90;93.30
8475;DHT22;4274;52.012;8.448;2023-04-09T14:46:42;13.90;93.30
8475;DHT22;4274;52.012;8.448;2023-04-09T14:49:08;13.90;93.40
8475;DHT22;4274;52.012;8.448;2023-04-09T14:51:33;13.90;93.30
8475;DHT22;4274;52.012;8.448;2023-04-09T14:53:59;13.80;93.00
8475;DHT22;4274;52.012;8.448;2023-04-09T14:56:26;13.70;92.70
8475;DHT22;4274;52.012;8.448;2023-04-09T14:58:51;13.60;92.80
8475;DHT22;4274;52.012;8.448;2023-04-09T15:01:17;13.60;93.00
8475;DHT22;4274;52.012;8.448;2023-04-09T15:03:43;13.60;93.40
8475;DHT22;4274;52.012;8.448;2023-04-09T15:06:10;13.60;93.40
8475;DHT22;4274;52.012;8.448;2023-04-09T15:08:36;13.60;93.40
8475;DHT22;4274;52.012;8.448;2023-04-09T15:11:02;13.60;93.20
8475;DHT22;4274;52.012;8.448;2023-04-09T15:13:27;13.60;93.30
8475;DHT22;4274;52.012;8.448;2023-04-09T15:15:53;13.60;93.30
8475;DHT22;4274;52.012;8.448;2023-04-09T15:18:19;13.60;93.60
8475;DHT22;4274;52.012;8.448;2023-04-09T15:20:44;13.60;93.50
8475;DHT22;4274;52.012;8.448;2023-04-09T15:23:10;13.60;93.40
8475;DHT22;4274;52.012;8.448;2023-04-09T15:25:36;13.60;93.70
8475;DHT22;4274;52.012;8.448;2023-04-09T15:28:04;13.60;93.90
8475;DHT22;4274;52.012;8.448;2023-04-09T15:30:30;13.60;93.90
8475;DHT22;4274;52.012;8.448;2023-04-09T15:32:56;13.40;94.20
8475;DHT22;4274;52.012;8.448;2023-04-09T15:35:21;13.40;94.30
8475;DHT22;4274;52.012;8.448;2023-04-09T15:37:54;13.30;94.30
8475;DHT22;4274;52.012;8.448;2023-04-09T15:40:20;13.20;94.50
8475;DHT22;4274;52.012;8.448;2023-04-09T15:42:46;13.10;94.90
8475;DHT22;4274;52.012;8.448;2023-04-09T15:45:13;13.10;95.10
8475;DHT22;4274;52.012;8.448;2023-04-09T15:47:40;13.10;95.40
8475;DHT22;4274;52.012;8.448;2023-04-09T15:50:06;13.00;95.20
8475;DHT22;4274;52.012;8.448;2023-04-09T15:52:31;13.00;95.20
8475;DHT22;4274;52.012;8.448;2023-04-09T15:54:57;12.90;95.10
8475;DHT22;4274;52.012;8.448;2023-04-09T15:57:23;12.90;95.20
8475;DHT22;4274;52.012;8.448;2023-04-09T15:59:48;12.90;95.30
8475;DHT22;4274;52.012;8.448;2023-04-09T16:02:14;12.90;95.10
8475;DHT22;4274;52.012;8.448;2023-04-09T16:04:39;12.90;95.10
8475;DHT22;4274;52.012;8.448;2023-04-09T16:07:05;12.90;95.10
8475;DHT22;4274;52.012;8.448;2023-04-09T16:09:31;12.90;95.10
8475;DHT22;4274;52.012;8.448;2023-04-09T16:11:56;12.80;94.70